METAR Data
IDs: Format: Raw Decoded Include TAF

Data at: 1623 UTC 26 Apr 2019

KSRR 261615Z AUTO 14009KT 10SM FEW014 12/08 A3033 RMK AO2
KSRR 261555Z AUTO 14010KT 10SM BKN014 12/08 A3034 RMK AO2
KSRR 261535Z AUTO 13009KT 10SM OVC012 10/07 A3034 RMK AO2
KSRR 261515Z AUTO 12009KT 10SM OVC014 10/08 A3035 RMK AO2
KSRR 261455Z AUTO 13010KT 10SM OVC016 10/07 A3035 RMK AO2
KSRR 261435Z AUTO 13010KT 10SM FEW010 OVC016 10/08 A3036 RMK AO2
KSRR 261415Z AUTO 12010KT 10SM OVC016 10/07 A3036 RMK AO2
KSRR 261355Z AUTO 13008KT 10SM OVC016 09/07 A3036 RMK AO2
KSRR 261335Z AUTO 13008KT 10SM OVC016 09/07 A3036 RMK AO2
KSRR 261315Z AUTO 14008KT 10SM OVC016 09/07 A3036 RMK AO2
KSRR 261255Z AUTO 14010KT 10SM SCT013 OVC018 09/07 A3035 RMK AO2
KSRR 261235Z AUTO 13009KT 10SM BKN013 OVC019 09/07 A3034 RMK AO2
KSRR 261215Z AUTO 14009KT 10SM OVC013 09/07 A3034 RMK AO2
KSRR 261155Z AUTO 14008KT 10SM OVC015 09/07 A3034 RMK AO2
KSRR 261135Z AUTO 14005KT 10SM OVC015 09/06 A3034 RMK AO2
KSRR 261115Z AUTO 15004KT 10SM OVC019 09/06 A3033 RMK AO2
KSRR 261055Z AUTO 16005KT 10SM OVC021 09/05 A3033 RMK AO2
KSRR 261035Z AUTO 14005KT 10SM OVC021 08/05 A3033 RMK AO2
KSRR 261015Z AUTO 16005KT 10SM BKN023 OVC027 09/05 A3033 RMK AO2
KSRR 260955Z AUTO 16006KT 10SM BKN027 OVC110 09/05 A3033 RMK AO2
KSRR 260935Z AUTO 16004KT 10SM BKN029 BKN035 OVC110 09/05 A3033 RMK AO2
KSRR 260915Z AUTO 16004KT 10SM FEW035 BKN110 10/05 A3033 RMK AO2
KSRR 260855Z AUTO 00000KT 10SM OVC110 10/05 A3033 RMK AO2
KSRR 260835Z AUTO 17004KT 10SM OVC110 10/05 A3033 RMK AO2
KSRR 260815Z AUTO 17005KT 10SM FEW075 OVC110 10/05 A3034 RMK AO2
KSRR 260755Z AUTO 18003KT 10SM BKN120 11/05 A3034 RMK AO2
KSRR 260735Z AUTO 23004KT 10SM FEW041 10/05 A3035 RMK AO2
KSRR 260715Z AUTO 18003KT 10SM FEW041 10/05 A3035 RMK AO2
KSRR 260655Z AUTO 16005KT 10SM FEW024 BKN039 10/05 A3035 RMK AO2
KSRR 260635Z AUTO 15006KT 10SM FEW024 SCT038 BKN044 10/05 A3035 RMK AO2 LTG DSNT W
KSRR 260615Z AUTO 14005KT 10SM OVC041 10/05 A3035 RMK AO2
KSRR 260555Z AUTO 14004KT 10SM BKN039 12/05 A3035 RMK AO2
KSRR 260535Z AUTO 15004KT 10SM FEW036 11/05 A3034 RMK AO2
KSRR 260515Z AUTO 16004KT 10SM FEW038 11/05 A3034 RMK AO2 LTG DSNT W
KSRR 260455Z AUTO 17006KT 10SM FEW036 11/05 A3034 RMK AO2
KSRR 260435Z AUTO 20005KT 10SM FEW033 11/05 A3034 RMK AO2
KSRR 260415Z AUTO 18007KT 10SM FEW037 12/05 A3033 RMK AO2
KSRR 260355Z AUTO 17007KT 10SM CLR 12/05 A3033 RMK AO2
KSRR 260335Z AUTO 16008KT 10SM CLR 12/05 A3032 RMK AO2
KSRR 260315Z AUTO 15008KT 10SM CLR 13/05 A3031 RMK AO2
KSRR 260255Z AUTO 13008KT 10SM CLR 13/04 A3030 RMK AO2
KSRR 260235Z AUTO 16008KT 10SM CLR 14/04 A3029 RMK AO2
KSRR 260215Z AUTO 14007KT 10SM CLR 13/03 A3029 RMK AO2
KSRR 260155Z AUTO 16004KT 10SM CLR 14/03 A3027 RMK AO2
KSRR 260135Z AUTO 17006KT 10SM CLR 15/03 A3027 RMK AO2
KSRR 260115Z AUTO 16011KT 10SM CLR 17/03 A3026 RMK AO2
KSRR 260055Z AUTO 16012G15KT 10SM BKN085 17/03 A3025 RMK AO2
KSRR 260035Z AUTO 18013G18KT 10SM OVC085 18/03 A3025 RMK AO2
KSRR 260015Z AUTO 17014G19KT 10SM OVC075 17/03 A3025 RMK AO2
KSRR 252355Z AUTO 15015KT 10SM SCT075 19/03 A3025 RMK AO2
KSRR 252335Z AUTO 11008KT 10SM CLR 18/03 A3024 RMK AO2
KSRR 252315Z AUTO 08012KT 10SM FEW065 18/03 A3023 RMK AO2
KSRR 252255Z AUTO 10013KT 10SM FEW095 19/03 A3023 RMK AO2
KSRR 252235Z AUTO 11014G20KT 10SM BKN120 19/03 A3022 RMK AO2
KSRR 252215Z AUTO 09018G23KT 10SM SCT120 20/03 A3021 RMK AO2
KSRR 252155Z AUTO 11012G15KT 10SM FEW095 21/00 A3021 RMK AO2
KSRR 252135Z AUTO 13011KT 10SM BKN095 20/M01 A3021 RMK AO2
KSRR 252115Z AUTO 10010KT 10SM SCT095 20/00 A3021 RMK AO2
KSRR 252055Z AUTO 10004KT 10SM CLR 22/00 A3021 RMK AO2
KSRR 251955Z AUTO 34005KT 10SM CLR 21/M01 A3022 RMK AO2
KSRR 251935Z AUTO 04004KT 10SM CLR 20/M02 A3022 RMK AO2
KSRR 251915Z AUTO 36004KT 10SM CLR 20/M01 A3022 RMK AO2
KSRR 251855Z AUTO 36004KT 10SM CLR 20/00 A3022 RMK AO2
KSRR 251835Z AUTO 33006KT 10SM CLR 20/00 A3022 RMK AO2
KSRR 251815Z AUTO 31009KT 260V330 10SM CLR 20/00 A3022 RMK AO2
KSRR 251755Z AUTO 18004KT 10SM CLR 19/M02 A3022 RMK AO2
KSRR 251735Z AUTO 36008KT 330V040 10SM CLR 19/00 A3022 RMK AO2
KSRR 251715Z AUTO 33006G16KT 10SM CLR 19/00 A3022 RMK AO2
KSRR 251655Z AUTO 36006G15KT 310V030 10SM CLR 18/00 A3022 RMK AO2
KSRR 251635Z AUTO 33009G14KT 10SM CLR 18/00 A3021 RMK AO2
KSRR 251615Z AUTO 33010G18KT 10SM CLR 18/00 A3020 RMK AO2
KSRR 251555Z AUTO 33009G15KT 10SM CLR 18/00 A3020 RMK AO2
KSRR 251535Z AUTO 34006KT 310V020 10SM CLR 17/M01 A3019 RMK AO2
KSRR 251515Z AUTO 33007G14KT 10SM CLR 17/M01 A3019 RMK AO2
KSRR 251455Z AUTO 32009KT 10SM CLR 16/M01 A3019 RMK AO2
KSRR 251435Z AUTO 31007KT 10SM CLR 15/00 A3018 RMK AO2
KSRR 251415Z AUTO 30009KT 10SM CLR 15/00 A3018 RMK AO2
KSRR 251355Z AUTO 28005KT 10SM CLR 13/00 A3017 RMK AO2
KSRR 251335Z AUTO 28004KT 10SM CLR 12/00 A3016 RMK AO2
KSRR 251315Z AUTO 26004KT 10SM CLR 10/00 A3015 RMK AO2
KSRR 251255Z AUTO 27005KT 10SM CLR 10/00 A3015 RMK AO2
KSRR 251235Z AUTO 26005KT 10SM CLR 10/00 A3014 RMK AO2
KSRR 251215Z AUTO 26007KT 10SM CLR 10/00 A3013 RMK AO2
KSRR 251155Z AUTO 27008KT 10SM CLR 09/00 A3012 RMK AO2
KSRR 251135Z AUTO 25008KT 10SM CLR 09/00 A3012 RMK AO2
KSRR 251115Z AUTO 25007KT 10SM CLR 09/00 A3012 RMK AO2
KSRR 251055Z AUTO 26008KT 10SM CLR 09/00 A3011 RMK AO2
KSRR 251035Z AUTO 27006KT 10SM CLR 10/00 A3011 RMK AO2
KSRR 251015Z AUTO 28006KT 10SM CLR 10/00 A3011 RMK AO2
KSRR 250955Z AUTO 27008KT 10SM CLR 10/00 A3011 RMK AO2
KSRR 250935Z AUTO 26008KT 10SM CLR 10/00 A3010 RMK AO2
KSRR 250915Z AUTO 27007KT 10SM CLR 08/00 A3010 RMK AO2
KSRR 250855Z AUTO 24008KT 10SM CLR 09/00 A3010 RMK AO2
KSRR 250835Z AUTO 23007KT 10SM CLR 09/00 A3010 RMK AO2
KSRR 250815Z AUTO 23006KT 10SM CLR 09/00 A3010 RMK AO2
KSRR 250755Z AUTO 23007KT 10SM CLR 10/00 A3010 RMK AO2
KSRR 250735Z AUTO 21004KT 10SM CLR 09/00 A3011 RMK AO2
KSRR 250715Z AUTO 20005KT 10SM CLR 08/00 A3011 RMK AO2
KSRR 250655Z AUTO 20006KT 10SM CLR 09/00 A3011 RMK AO2
KSRR 250615Z AUTO 00000KT 10SM CLR 12/00 A3011 RMK AO2
KSRR 250555Z AUTO 24004KT 10SM CLR 12/00 A3011 RMK AO2
KSRR 250535Z AUTO 26004KT 10SM CLR 12/00 A3010 RMK AO2
KSRR 250515Z AUTO 26006KT 10SM FEW085 10/00 A3010 RMK AO2
KSRR 250455Z AUTO 26008KT 10SM SCT085 11/00 A3010 RMK AO2
KSRR 250435Z AUTO 26008KT 10SM SCT085 11/00 A3010 RMK AO2